Time;durP1;ratioP1;P1;durP2;ratioP2;P2;SDS_P1;SDS_P2;PMS_P1;PMS_P2;Temp;Humidity;BMP_temperature;BMP_pressure;BME280_temperature;BME280_humidity;BME280_pressure;Samples;Min_cycle;Max_cycle;Signal;HPM_P1;HPM_P2
2023/06/02 00:02:06;;;;;;;0.20;0.20;;;9.90;99.90;;;;;;5063569;28;20189;-80
2023/06/02 00:04:31;;;;;;;0.20;0.20;;;10.00;99.90;;;;;;5075896;28;20189;-80
2023/06/02 00:07:03;;;;;;;0.20;0.20;;;10.00;99.90;;;;;;5068564;28;20447;-81
2023/06/02 00:09:29;;;;;;;0.20;0.20;;;10.00;99.90;;;;;;5073090;28;20193;-80
2023/06/02 00:11:54;;;;;;;0.20;0.20;;;10.00;99.90;;;;;;5070546;28;20451;-80
2023/06/02 00:14:21;;;;;;;0.20;0.20;;;10.10;99.90;;;;;;5081502;28;20451;-80
2023/06/02 00:16:47;;;;;;;0.20;0.20;;;10.00;99.90;;;;;;5066862;28;20230;-80
2023/06/02 00:19:14;;;;;;;0.20;0.20;;;10.10;99.90;;;;;;5072880;28;20499;-80
2023/06/02 00:21:41;;;;;;;0.20;0.20;;;10.00;99.90;;;;;;5078187;28;20279;-80
2023/06/02 00:24:06;;;;;;;0.20;0.20;;;10.10;99.90;;;;;;5085862;28;20549;-79
2023/06/02 00:26:32;;;;;;;0.20;0.20;;;10.10;99.90;;;;;;5071901;28;20985;-80
2023/06/02 00:28:57;;;;;;;0.20;0.20;;;10.00;99.90;;;;;;5083619;28;20275;-79
2023/06/02 00:31:23;;;;;;;0.20;0.20;;;10.00;99.90;;;;;;5072892;28;20186;-80
2023/06/02 00:33:49;;;;;;;0.20;0.20;;;9.90;99.90;;;;;;5069565;28;20624;-80
2023/06/02 00:36:14;;;;;;;0.20;0.20;;;9.70;99.90;;;;;;5077685;28;20248;-79
2023/06/02 00:38:41;;;;;;;0.20;0.20;;;9.60;99.90;;;;;;5088938;28;20446;-79
2023/06/02 00:41:07;;;;;;;0.20;0.20;;;9.70;99.90;;;;;;5057936;28;20193;-80
2023/06/02 00:43:33;;;;;;;0.20;0.20;;;9.80;99.90;;;;;;5076010;28;20567;-79
2023/06/02 00:45:59;;;;;;;0.20;0.20;;;9.90;99.90;;;;;;5077098;28;20439;-79
2023/06/02 00:48:25;;;;;;;0.20;0.20;;;10.10;99.90;;;;;;5067907;28;20296;-79
2023/06/02 00:50:51;;;;;;;0.20;0.20;;;10.00;99.90;;;;;;5072882;28;20185;-80
2023/06/02 00:53:16;;;;;;;0.20;0.20;;;9.90;99.90;;;;;;5050589;28;20445;-80
2023/06/02 00:55:43;;;;;;;0.20;0.20;;;10.00;99.90;;;;;;5074224;28;20542;-80
2023/06/02 00:58:13;;;;;;;0.20;0.20;;;9.90;99.90;;;;;;5089965;28;20745;-80
2023/06/02 01:00:41;;;;;;;0.20;0.20;;;9.80;99.90;;;;;;5075399;28;20447;-79
2023/06/02 01:03:07;;;;;;;0.20;0.20;;;9.80;99.90;;;;;;5051147;28;21022;-80
2023/06/02 01:05:35;;;;;;;0.20;0.20;;;9.70;99.90;;;;;;5067859;28;20455;-79
2023/06/02 01:08:03;;;;;;;0.20;0.20;;;9.70;99.90;;;;;;5069528;28;20205;-79
2023/06/02 01:10:30;;;;;;;0.20;0.20;;;9.60;99.90;;;;;;5068440;28;20959;-80
2023/06/02 01:12:55;;;;;;;0.20;0.20;;;9.70;99.90;;;;;;5089659;28;20423;-80
2023/06/02 01:15:21;;;;;;;0.20;0.20;;;9.50;99.90;;;;;;5086138;28;20478;-80
2023/06/02 01:17:47;;;;;;;0.20;0.20;;;9.60;99.90;;;;;;5075092;28;20747;-79
2023/06/02 01:20:14;;;;;;;0.20;0.20;;;9.60;99.90;;;;;;5069108;28;20189;-79
2023/06/02 01:22:53;;;;;;;0.20;0.20;;;9.70;99.90;;;;;;5069541;28;20416;-80
2023/06/02 01:25:27;;;;;;;0.20;0.20;;;9.60;99.90;;;;;;5050888;28;20436;-80
2023/06/02 01:27:52;;;;;;;0.20;0.20;;;9.70;99.90;;;;;;5068925;28;20436;-80
2023/06/02 01:30:19;;;;;;;0.23;0.23;;;9.70;99.90;;;;;;5075197;28;20453;-80
2023/06/02 01:33:01;;;;;;;0.20;0.20;;;9.70;99.90;;;;;;5068812;28;20206;-80
2023/06/02 01:35:30;;;;;;;0.20;0.20;;;9.60;99.90;;;;;;5087332;28;20483;-80
2023/06/02 01:37:59;;;;;;;0.20;0.20;;;9.60;99.90;;;;;;5068290;28;20463;-80
2023/06/02 01:40:25;;;;;;;0.20;0.20;;;9.60;99.90;;;;;;5078716;28;20442;-80
2023/06/02 01:42:53;;;;;;;0.20;0.20;;;9.50;99.90;;;;;;5075775;28;20439;-80
2023/06/02 01:45:21;;;;;;;0.20;0.20;;;9.50;99.90;;;;;;5075970;28;20439;-80
2023/06/02 01:47:46;;;;;;;0.20;0.20;;;9.50;99.90;;;;;;5077110;28;20506;-80
2023/06/02 01:50:12;;;;;;;0.20;0.20;;;9.50;99.90;;;;;;5076530;28;20490;-80
2023/06/02 01:52:37;;;;;;;0.20;0.20;;;9.60;99.90;;;;;;5080331;28;20175;-79
2023/06/02 01:55:03;;;;;;;0.20;0.20;;;9.50;99.90;;;;;;5061968;28;20200;-80
2023/06/02 01:57:30;;;;;;;0.20;0.20;;;9.50;99.90;;;;;;5085604;28;20213;-79
2023/06/02 01:59:55;;;;;;;0.20;0.20;;;9.40;99.90;;;;;;5074497;28;20439;-80
2023/06/02 02:02:21;;;;;;;0.20;0.20;;;9.40;99.90;;;;;;5070968;28;20443;-79
2023/06/02 02:04:46;;;;;;;0.20;0.20;;;9.40;99.90;;;;;;5075066;28;20185;-80
2023/06/02 02:07:12;;;;;;;0.20;0.20;;;9.30;99.90;;;;;;5081164;28;20194;-80
2023/06/02 02:09:38;;;;;;;0.30;0.30;;;9.40;99.90;;;;;;5057988;28;20220;-80
2023/06/02 02:12:05;;;;;;;0.20;0.20;;;9.30;99.90;;;;;;5062307;28;20190;-79
2023/06/02 02:14:30;;;;;;;0.20;0.20;;;9.30;99.90;;;;;;5045618;28;20970;-79
2023/06/02 02:17:00;;;;;;;0.20;0.20;;;9.10;99.90;;;;;;5070459;28;20483;-79
2023/06/02 02:19:31;;;;;;;0.20;0.20;;;9.10;99.90;;;;;;5086498;28;20243;-80
2023/06/02 02:21:57;;;;;;;0.30;0.30;;;9.20;99.90;;;;;;5084102;28;21050;-79
2023/06/02 02:24:23;;;;;;;0.20;0.20;;;9.30;99.90;;;;;;5077756;28;20503;-79
2023/06/02 02:26:48;;;;;;;0.20;0.20;;;9.30;99.90;;;;;;5075135;28;20613;-79
2023/06/02 02:29:14;;;;;;;0.20;0.20;;;9.30;99.90;;;;;;5085139;28;20204;-79
2023/06/02 02:31:39;;;;;;;0.20;0.20;;;9.40;99.90;;;;;;5071178;28;20194;-79
2023/06/02 02:34:05;;;;;;;0.20;0.20;;;9.40;99.90;;;;;;5049123;28;20275;-79
2023/06/02 02:36:32;;;;;;;0.20;0.20;;;9.40;99.90;;;;;;5064333;28;20222;-79
2023/06/02 02:38:58;;;;;;;0.20;0.20;;;9.30;99.90;;;;;;5075556;28;20264;-79
2023/06/02 02:41:23;;;;;;;0.20;0.20;;;9.30;99.90;;;;;;5075799;28;20498;-80
2023/06/02 02:43:49;;;;;;;0.20;0.20;;;9.10;99.90;;;;;;5093017;28;20180;-79
2023/06/02 02:46:15;;;;;;;0.20;0.20;;;9.20;99.90;;;;;;5086141;28;20187;-79
2023/06/02 02:48:41;;;;;;;0.20;0.20;;;9.30;99.90;;;;;;5074795;28;20440;-79
2023/06/02 02:51:06;;;;;;;0.20;0.20;;;9.20;99.90;;;;;;5049157;28;20566;-79
2023/06/02 02:53:32;;;;;;;0.20;0.20;;;9.20;99.90;;;;;;5077209;28;20273;-79
2023/06/02 02:55:57;;;;;;;0.20;0.20;;;9.20;99.90;;;;;;5077519;28;20295;-79
2023/06/02 02:58:24;;;;;;;0.30;0.30;;;9.20;99.90;;;;;;5080001;28;20651;-79
2023/06/02 03:00:50;;;;;;;0.27;0.27;;;9.40;99.90;;;;;;5050439;28;20804;-79
2023/06/02 03:03:16;;;;;;;0.20;0.20;;;9.40;99.90;;;;;;5052130;28;20990;-79
2023/06/02 03:05:41;;;;;;;0.20;0.20;;;9.50;99.90;;;;;;5080098;28;20443;-79
2023/06/02 03:08:12;;;;;;;0.20;0.20;;;9.50;99.90;;;;;;5076958;28;20279;-79
2023/06/02 03:10:38;;;;;;;0.20;0.20;;;9.60;99.90;;;;;;5080038;28;20792;-79
2023/06/02 03:13:03;;;;;;;0.20;0.20;;;9.80;99.90;;;;;;5087810;28;20484;-79
2023/06/02 03:15:30;;;;;;;0.20;0.20;;;9.90;99.90;;;;;;5057940;28;20487;-79
2023/06/02 03:17:57;;;;;;;0.20;0.20;;;9.90;99.90;;;;;;5068977;28;20633;-79
2023/06/02 03:20:25;;;;;;;0.20;0.20;;;10.00;99.90;;;;;;5072176;28;20950;-79
2023/06/02 03:22:51;;;;;;;0.20;0.20;;;10.10;99.90;;;;;;5067442;28;20820;-79
2023/06/02 03:25:20;;;;;;;0.20;0.20;;;10.20;99.90;;;;;;5071160;28;20454;-79
2023/06/02 03:27:46;;;;;;;0.20;0.20;;;10.30;99.90;;;;;;5070674;28;20186;-79
2023/06/02 03:30:12;;;;;;;0.20;0.20;;;10.30;99.90;;;;;;5059638;28;20443;-79
2023/06/02 03:32:37;;;;;;;0.20;0.20;;;10.40;99.90;;;;;;5071451;28;20660;-79
2023/06/02 03:35:03;;;;;;;0.20;0.20;;;10.50;99.90;;;;;;5055218;28;20816;-79
2023/06/02 03:37:29;;;;;;;0.20;0.20;;;10.50;99.90;;;;;;5076349;28;20203;-79
2023/06/02 03:39:54;;;;;;;0.20;0.20;;;10.60;99.90;;;;;;5073034;28;20263;-79
2023/06/02 03:42:20;;;;;;;0.20;0.20;;;10.60;99.90;;;;;;5071949;28;20237;-80
2023/06/02 03:44:45;;;;;;;0.20;0.20;;;10.70;99.90;;;;;;5082319;28;20187;-79
2023/06/02 03:47:11;;;;;;;0.20;0.20;;;10.70;99.90;;;;;;5055102;28;20285;-79
2023/06/02 03:49:36;;;;;;;0.17;0.17;;;10.80;99.90;;;;;;5086742;28;20530;-79
2023/06/02 03:52:02;;;;;;;0.20;0.20;;;10.80;99.90;;;;;;5080832;28;20195;-79
2023/06/02 03:54:28;;;;;;;0.20;0.20;;;10.70;99.90;;;;;;5083803;28;20220;-79
2023/06/02 03:56:54;;;;;;;0.20;0.20;;;10.80;99.90;;;;;;5054223;28;20530;-79
2023/06/02 03:59:19;;;;;;;0.20;0.20;;;10.80;99.90;;;;;;5069272;28;20234;-79
2023/06/02 04:01:45;;;;;;;0.20;0.20;;;10.80;99.90;;;;;;5060871;28;20549;-79
2023/06/02 04:04:11;;;;;;;0.20;0.20;;;10.80;99.90;;;;;;5082823;28;20209;-80
2023/06/02 04:06:40;;;;;;;0.20;0.20;;;10.90;99.90;;;;;;5069992;28;20590;-80
2023/06/02 04:09:07;;;;;;;0.20;0.20;;;10.90;99.90;;;;;;5070743;28;20447;-80
2023/06/02 04:11:32;;;;;;;0.20;0.20;;;11.00;99.90;;;;;;5075244;28;20879;-80
2023/06/02 04:13:58;;;;;;;0.20;0.20;;;11.10;99.90;;;;;;5056025;28;20564;-80
2023/06/02 04:16:23;;;;;;;0.20;0.20;;;11.20;99.90;;;;;;5062592;28;20229;-80
2023/06/02 04:18:49;;;;;;;0.20;0.20;;;11.20;99.90;;;;;;5083044;28;20198;-80
2023/06/02 04:21:14;;;;;;;0.20;0.20;;;11.30;99.90;;;;;;5081711;28;20189;-80
2023/06/02 04:23:40;;;;;;;0.10;0.10;;;11.30;99.90;;;;;;5076359;28;20182;-80
2023/06/02 04:26:05;;;;;;;0.20;0.20;;;11.40;99.90;;;;;;5049367;28;21172;-80
2023/06/02 04:28:31;;;;;;;0.20;0.20;;;11.50;99.90;;;;;;5068328;28;20309;-80
2023/06/02 04:30:59;;;;;;;0.20;0.20;;;11.60;99.90;;;;;;5067260;28;20244;-79
2023/06/02 04:33:24;;;;;;;0.20;0.20;;;11.70;99.90;;;;;;5062352;28;20190;-79
2023/06/02 04:35:50;;;;;;;0.20;0.20;;;11.90;99.90;;;;;;5051832;28;20530;-80
2023/06/02 04:38:16;;;;;;;0.10;0.10;;;11.90;99.90;;;;;;5070425;28;20178;-79
2023/06/02 04:40:42;;;;;;;0.20;0.20;;;12.10;99.90;;;;;;5078581;28;20504;-80
2023/06/02 04:43:08;;;;;;;0.20;0.20;;;12.30;99.90;;;;;;5077424;28;20182;-79
2023/06/02 04:45:33;;;;;;;0.20;0.20;;;12.40;99.90;;;;;;5070759;28;20463;-79
2023/06/02 04:48:00;;;;;;;0.10;0.10;;;12.60;99.90;;;;;;5045944;28;20748;-82
2023/06/02 04:50:27;;;;;;;0.10;0.10;;;12.80;99.90;;;;;;5067388;28;20191;-82
2023/06/02 04:52:52;;;;;;;0.20;0.20;;;12.90;99.90;;;;;;5050606;28;20478;-82
2023/06/02 04:55:18;;;;;;;0.10;0.10;;;13.00;99.90;;;;;;5066228;28;21061;-82
2023/06/02 04:57:43;;;;;;;0.10;0.10;;;12.90;99.90;;;;;;5075917;28;20248;-82
2023/06/02 05:00:10;;;;;;;0.10;0.10;;;12.90;99.90;;;;;;5071817;28;20186;-82
2023/06/02 05:02:36;;;;;;;0.10;0.10;;;13.00;99.90;;;;;;5064122;28;20181;-82
2023/06/02 05:05:05;;;;;;;0.10;0.10;;;13.00;99.90;;;;;;5051523;28;20456;-83
2023/06/02 05:07:30;;;;;;;0.20;0.20;;;13.10;99.90;;;;;;5053162;28;20440;-82
2023/06/02 05:09:56;;;;;;;0.10;0.10;;;13.10;99.90;;;;;;5074019;28;20788;-82
2023/06/02 05:12:22;;;;;;;0.10;0.10;;;13.00;99.90;;;;;;5062085;28;20182;-81
2023/06/02 05:14:48;;;;;;;0.20;0.20;;;13.00;99.90;;;;;;5061926;28;20186;-81
2023/06/02 05:17:19;;;;;;;0.10;0.10;;;13.00;99.90;;;;;;5066577;28;20451;-81
2023/06/02 05:19:45;;;;;;;0.10;0.10;;;13.00;99.90;;;;;;5047532;28;21906;-81
2023/06/02 05:22:10;;;;;;;0.10;0.10;;;13.00;99.90;;;;;;5033943;28;20452;-80
2023/06/02 05:24:36;;;;;;;0.10;0.10;;;13.00;99.90;;;;;;5075259;28;20705;-79
2023/06/02 05:27:01;;;;;;;0.10;0.10;;;13.00;99.90;;;;;;5069140;28;20189;-80
2023/06/02 05:29:27;;;;;;;0.10;0.10;;;13.00;99.90;;;;;;5058962;28;21041;-80
2023/06/02 05:31:53;;;;;;;0.10;0.10;;;13.10;99.90;;;;;;5063570;28;20212;-79
2023/06/02 05:34:18;;;;;;;0.10;0.10;;;13.10;99.90;;;;;;5065470;28;20614;-81
2023/06/02 05:36:44;;;;;;;0.10;0.10;;;13.00;99.90;;;;;;5067640;28;20229;-80
2023/06/02 05:39:10;;;;;;;0.10;0.10;;;13.00;99.90;;;;;;5064899;28;20200;-80
2023/06/02 05:41:35;;;;;;;0.10;0.10;;;13.10;99.90;;;;;;5072808;28;20182;-80
2023/06/02 05:44:01;;;;;;;0.10;0.10;;;13.20;99.90;;;;;;5066091;28;20472;-79
2023/06/02 05:46:27;;;;;;;0.10;0.10;;;13.10;99.90;;;;;;5068587;28;20225;-80
2023/06/02 05:48:52;;;;;;;0.10;0.10;;;13.10;99.90;;;;;;5066011;28;20186;-82
2023/06/02 05:51:18;;;;;;;0.10;0.10;;;13.20;99.90;;;;;;5068233;28;20261;-81
2023/06/02 05:53:43;;;;;;;0.10;0.10;;;13.10;99.90;;;;;;5049897;28;20649;-80
2023/06/02 05:56:09;;;;;;;0.10;0.10;;;13.20;99.90;;;;;;5064907;28;20249;-78
2023/06/02 05:58:38;;;;;;;0.10;0.10;;;13.20;99.90;;;;;;5072340;28;20308;-82
2023/06/02 06:01:04;;;;;;;0.10;0.10;;;13.20;99.90;;;;;;5071150;28;20214;-82
2023/06/02 06:03:29;;;;;;;0.10;0.10;;;13.20;99.90;;;;;;5075022;28;20522;-82
2023/06/02 06:05:55;;;;;;;0.10;0.10;;;13.30;99.90;;;;;;5069010;28;20646;-82
2023/06/02 06:08:20;;;;;;;0.10;0.10;;;13.30;99.90;;;;;;5071982;28;20181;-82
2023/06/02 06:10:46;;;;;;;0.10;0.10;;;13.30;99.90;;;;;;5048655;28;20775;-81
2023/06/02 06:13:11;;;;;;;0.10;0.10;;;13.50;99.90;;;;;;5070395;28;20188;-82
2023/06/02 06:15:37;;;;;;;0.10;0.10;;;13.70;99.90;;;;;;5049179;28;20212;-83
2023/06/02 06:18:02;;;;;;;0.10;0.10;;;13.90;99.90;;;;;;5080890;28;20178;-82
2023/06/02 06:20:28;;;;;;;0.10;0.10;;;14.20;99.90;;;;;;5072703;28;20182;-82
2023/06/02 06:22:53;;;;;;;0.10;0.10;;;14.20;99.90;;;;;;5069814;28;20177;-83
2023/06/02 06:25:19;;;;;;;0.10;0.10;;;14.10;99.90;;;;;;5082645;28;20315;-81
2023/06/02 06:27:44;;;;;;;0.10;0.10;;;14.20;99.90;;;;;;5050862;28;20264;-83
2023/06/02 06:30:10;;;;;;;0.10;0.10;;;14.10;99.90;;;;;;5074683;28;20244;-81
2023/06/02 06:32:36;;;;;;;0.10;0.10;;;14.10;99.90;;;;;;5054827;28;20187;-83
2023/06/02 06:35:01;;;;;;;0.10;0.10;;;14.00;99.90;;;;;;5070712;28;20554;-80
2023/06/02 06:37:28;;;;;;;0.10;0.10;;;14.20;99.90;;;;;;5075351;28;20195;-82
2023/06/02 06:39:53;;;;;;;0.10;0.10;;;14.30;99.90;;;;;;5072859;28;20533;-81
2023/06/02 06:42:19;;;;;;;0.10;0.10;;;14.50;99.90;;;;;;5075004;28;20455;-81
2023/06/02 06:44:46;;;;;;;0.10;0.10;;;14.80;99.90;;;;;;5071025;28;20428;-82
2023/06/02 06:47:12;;;;;;;0.10;0.10;;;14.60;99.90;;;;;;5060988;28;20264;-82
2023/06/02 06:49:38;;;;;;;0.10;0.10;;;14.40;99.90;;;;;;5067418;28;20496;-81
2023/06/02 06:52:03;;;;;;;0.10;0.10;;;14.40;99.90;;;;;;5047928;28;20441;-82
2023/06/02 06:54:31;;;;;;;0.10;0.10;;;14.40;99.90;;;;;;5078387;28;20308;-85
2023/06/02 06:56:56;;;;;;;0.10;0.10;;;14.50;99.90;;;;;;5079439;28;20214;-85
2023/06/02 06:59:22;;;;;;;0.10;0.10;;;14.60;99.90;;;;;;5076546;28;20472;-82
2023/06/02 07:01:47;;;;;;;0.10;0.10;;;14.60;99.90;;;;;;5079083;28;20201;-82
2023/06/02 07:04:13;;;;;;;0.10;0.10;;;14.70;99.90;;;;;;5089682;28;20224;-81
2023/06/02 07:06:38;;;;;;;0.10;0.10;;;14.90;99.90;;;;;;5050597;28;20182;-81
2023/06/02 07:09:04;;;;;;;0.10;0.10;;;14.80;99.90;;;;;;5077214;28;20258;-82
2023/06/02 07:11:29;;;;;;;0.10;0.10;;;14.70;99.90;;;;;;5069282;28;20717;-83
2023/06/02 07:13:55;;;;;;;0.10;0.10;;;14.50;99.90;;;;;;5065027;28;20190;-82
2023/06/02 07:16:21;;;;;;;0.10;0.10;;;14.90;99.90;;;;;;5066179;28;20680;-81
2023/06/02 07:18:50;;;;;;;0.10;0.10;;;15.20;99.90;;;;;;5042693;28;20224;-82
2023/06/02 07:21:15;;;;;;;0.10;0.10;;;15.40;99.90;;;;;;5073724;28;20193;-81
2023/06/02 07:23:41;;;;;;;0.10;0.10;;;15.40;99.90;;;;;;5033608;28;20815;-82
2023/06/02 07:26:06;;;;;;;0.10;0.10;;;15.50;99.90;;;;;;5051050;28;20650;-81
2023/06/02 07:28:32;;;;;;;0.10;0.10;;;14.90;99.90;;;;;;5067363;28;20189;-81
2023/06/02 07:30:57;;;;;;;0.10;0.10;;;14.60;99.90;;;;;;5066220;28;20201;-82
2023/06/02 07:33:23;;;;;;;0.10;0.10;;;14.50;99.90;;;;;;5070874;28;20264;-81
2023/06/02 07:35:48;;;;;;;0.10;0.10;;;14.50;99.90;;;;;;5077733;28;20221;-81
2023/06/02 07:38:14;;;;;;;0.10;0.10;;;14.60;99.90;;;;;;5073799;28;20633;-83
2023/06/02 07:40:40;;;;;;;0.10;0.10;;;15.20;99.90;;;;;;5076057;28;20189;-81
2023/06/02 07:43:05;;;;;;;0.10;0.10;;;15.60;99.90;;;;;;5087968;28;20184;-81
2023/06/02 07:45:31;;;;;;;0.10;0.10;;;15.50;99.90;;;;;;5050475;28;20235;-81
2023/06/02 07:47:56;;;;;;;0.10;0.10;;;15.10;99.90;;;;;;5067328;28;20268;-81
2023/06/02 07:50:22;;;;;;;0.10;0.10;;;15.10;99.90;;;;;;5076874;28;20193;-81
2023/06/02 07:52:48;;;;;;;0.10;0.10;;;15.00;99.90;;;;;;5050478;28;20193;-84
2023/06/02 07:55:14;;;;;;;0.10;0.10;;;15.20;99.90;;;;;;5062516;28;20204;-81
2023/06/02 07:57:39;;;;;;;0.10;0.10;;;15.30;99.90;;;;;;5075947;28;20755;-81
2023/06/02 08:00:16;;;;;;;0.10;0.10;;;15.30;99.90;;;;;;5048650;28;20645;-82
2023/06/02 08:02:43;;;;;;;0.10;0.10;;;15.20;99.90;;;;;;5063881;28;20193;-82
2023/06/02 08:05:09;;;;;;;0.10;0.10;;;15.00;99.90;;;;;;5060016;28;20440;-81
2023/06/02 08:07:35;;;;;;;0.10;0.10;;;14.90;99.90;;;;;;5053819;28;20443;-81
2023/06/02 08:10:00;;;;;;;0.10;0.10;;;15.00;99.90;;;;;;5076810;28;20461;-81
2023/06/02 08:12:26;;;;;;;0.10;0.10;;;15.60;99.90;;;;;;5072743;28;20192;-82
2023/06/02 08:14:51;;;;;;;0.10;0.10;;;16.00;99.90;;;;;;5050387;28;20242;-84
2023/06/02 08:17:17;;;;;;;0.10;0.10;;;16.20;99.90;;;;;;5069573;28;20190;-80
2023/06/02 08:19:43;;;;;;;0.10;0.10;;;16.10;99.90;;;;;;5067927;28;20198;-80
2023/06/02 08:22:11;;;;;;;0.10;0.10;;;16.40;99.90;;;;;;5068461;28;20440;-81
2023/06/02 08:24:36;;;;;;;0.10;0.10;;;16.00;99.90;;;;;;5049382;28;20232;-81
2023/06/02 08:27:03;;;;;;;0.10;0.10;;;16.40;99.90;;;;;;5071722;28;20443;-81
2023/06/02 08:29:30;;;;;;;0.10;0.10;;;16.70;99.90;;;;;;5080151;28;20185;-82
2023/06/02 08:31:56;;;;;;;0.10;0.10;;;16.20;99.90;;;;;;5066479;28;20442;-81
2023/06/02 08:34:23;;;;;;;0.10;0.10;;;16.40;99.90;;;;;;5065890;28;20917;-80
2023/06/02 08:36:57;;;;;;;0.10;0.10;;;16.90;99.90;;;;;;5052304;28;20205;-80
2023/06/02 08:39:25;;;;;;;0.10;0.10;;;17.30;99.90;;;;;;5046816;28;20521;-82
2023/06/02 08:41:51;;;;;;;0.10;0.10;;;16.80;99.90;;;;;;5079607;28;20922;-81
2023/06/02 08:44:17;;;;;;;0.10;0.10;;;17.10;99.90;;;;;;5051481;28;20447;-80
2023/06/02 08:46:47;;;;;;;0.10;0.10;;;16.90;99.90;;;;;;5064824;28;20649;-83
2023/06/02 08:49:17;;;;;;;0.10;0.10;;;16.80;99.90;;;;;;5065408;28;20186;-84
2023/06/02 08:51:43;;;;;;;0.10;0.10;;;16.90;99.90;;;;;;5086807;28;20453;-82
2023/06/02 08:54:11;;;;;;;0.10;0.10;;;17.20;99.90;;;;;;5068685;28;20440;-83
2023/06/02 08:56:37;;;;;;;0.10;0.10;;;17.00;99.90;;;;;;5054594;28;20594;-85
2023/06/02 08:59:02;;;;;;;0.10;0.10;;;17.50;99.90;;;;;;5068599;28;20950;-82
2023/06/02 09:01:28;;;;;;;0.10;0.10;;;17.70;99.90;;;;;;5067123;28;20194;-82
2023/06/02 09:03:54;;;;;;;0.10;0.10;;;17.90;99.90;;;;;;5085726;28;20187;-85
2023/06/02 09:06:22;;;;;;;0.10;0.10;;;17.90;99.90;;;;;;5064219;28;20499;-83
2023/06/02 09:08:58;;;;;;;0.10;0.10;;;18.10;99.90;;;;;;5065486;28;20242;-83
2023/06/02 09:11:26;;;;;;;0.10;0.10;;;17.90;99.90;;;;;;5064037;28;20447;-85
2023/06/02 09:13:52;;;;;;;0.10;0.10;;;18.00;99.90;;;;;;5070829;28;20816;-79
2023/06/02 09:16:20;;;;;;;0.10;0.10;;;17.70;99.90;;;;;;5059789;28;20953;-80
2023/06/02 09:18:59;;;;;;;0.10;0.10;;;17.70;99.90;;;;;;5068994;28;20522;-83
2023/06/02 09:21:29;;;;;;;0.10;0.10;;;17.80;99.90;;;;;;5063330;28;20955;-81
2023/06/02 09:23:56;;;;;;;0.10;0.10;;;17.90;99.90;;;;;;5064792;28;20526;-82
2023/06/02 09:26:27;;;;;;;0.10;0.10;;;18.20;99.90;;;;;;5072339;28;20469;-82
2023/06/02 09:29:07;;;;;;;0.10;0.10;;;18.50;99.90;;;;;;5065072;28;20440;-85
2023/06/02 09:31:45;;;;;;;0.10;0.10;;;18.80;99.90;;;;;;5045508;28;20487;-86
2023/06/02 09:34:12;;;;;;;0.10;0.10;;;18.70;99.90;;;;;;5049928;28;20447;-86
2023/06/02 09:36:38;;;;;;;0.10;0.10;;;18.50;99.90;;;;;;5073068;28;20566;-84
2023/06/02 09:39:10;;;;;;;0.10;0.10;;;18.60;99.90;;;;;;5082302;28;20492;-84
2023/06/02 09:41:40;;;;;;;0.10;0.10;;;18.60;99.90;;;;;;5066083;28;20177;-84
2023/06/02 09:44:15;;;;;;;0.10;0.10;;;19.00;99.90;;;;;;5069019;28;20468;-87
2023/06/02 09:46:43;;;;;;;0.10;0.10;;;19.00;99.30;;;;;;5068300;28;20473;-84
2023/06/02 09:49:10;;;;;;;0.10;0.10;;;18.70;98.40;;;;;;5067266;28;20439;-83
2023/06/02 09:51:38;;;;;;;0.10;0.10;;;18.60;97.40;;;;;;5068487;28;20562;-84
2023/06/02 09:54:06;;;;;;;0.10;0.00;;;18.80;99.30;;;;;;5058640;28;20435;-87
2023/06/02 09:56:36;;;;;;;0.10;0.10;;;18.90;99.90;;;;;;5067480;28;20565;-84
2023/06/02 09:59:01;;;;;;;0.10;0.10;;;19.20;98.70;;;;;;5073163;28;20898;-84
2023/06/02 10:01:27;;;;;;;0.10;0.10;;;19.40;99.90;;;;;;5069294;28;20452;-86
2023/06/02 10:03:52;;;;;;;0.10;0.10;;;19.60;99.90;;;;;;5070683;28;20194;-86
2023/06/02 10:06:46;;;;;;;0.10;0.10;;;19.90;99.90;;;;;;5075877;28;20245;-84
2023/06/02 10:09:48;;;;;;;0.10;0.00;;;19.90;99.30;;;;;;5065505;28;20597;-86
2023/06/02 10:12:38;;;;;;;0.10;0.10;;;20.10;99.90;;;;;;5051940;28;20486;-86
2023/06/02 10:15:13;;;;;;;0.10;0.10;;;20.50;99.90;;;;;;5068986;28;20531;-85
2023/06/02 10:17:59;;;;;;;0.10;0.00;;;20.40;99.90;;;;;;5057779;28;20447;-83
2023/06/02 10:20:32;;;;;;;0.10;0.00;;;20.60;99.90;;;;;;5052212;28;20573;-83
2023/06/02 10:23:03;;;;;;;0.10;0.00;;;21.10;99.90;;;;;;5067223;28;20450;-81
2023/06/02 10:25:57;;;;;;;0.10;0.00;;;21.40;99.10;;;;;;5068809;28;20435;-83
2023/06/02 10:28:25;;;;;;;0.10;0.10;;;21.70;97.90;;;;;;5054452;28;20486;-82
2023/06/02 10:31:06;;;;;;;0.10;0.00;;;21.60;98.60;;;;;;5078458;28;20497;-81
2023/06/02 10:33:42;;;;;;;0.10;0.00;;;21.60;96.60;;;;;;5073221;28;20457;-82
2023/06/02 10:36:08;;;;;;;0.10;0.10;;;21.70;96.00;;;;;;5071048;28;20487;-82
2023/06/02 10:38:34;;;;;;;0.10;0.00;;;21.70;96.90;;;;;;5065440;28;20500;-80
2023/06/02 10:41:00;;;;;;;0.10;0.00;;;21.70;92.90;;;;;;5072591;28;20261;-83
2023/06/02 10:43:26;;;;;;;0.10;0.00;;;21.90;95.40;;;;;;5071607;28;20475;-83
2023/06/02 10:45:52;;;;;;;0.10;0.00;;;22.20;96.60;;;;;;5066158;28;20989;-82
2023/06/02 10:48:39;;;;;;;0.10;0.00;;;22.30;95.90;;;;;;5070264;28;20447;-83
2023/06/02 10:51:07;;;;;;;0.10;0.10;;;22.70;94.00;;;;;;5064251;28;20177;-82
2023/06/02 10:53:33;;;;;;;0.10;0.00;;;22.40;93.60;;;;;;5067292;28;20496;-83
2023/06/02 10:56:44;;;;;;;0.10;0.00;;;22.10;91.90;;;;;;5070241;28;20949;-82
2023/06/02 10:59:29;;;;;;;0.10;0.00;;;22.60;94.20;;;;;;5065181;28;20483;-81
2023/06/02 11:01:55;;;;;;;0.10;0.00;;;22.30;93.00;;;;;;5066071;28;20517;-84
2023/06/02 11:04:31;;;;;;;0.10;0.00;;;22.60;90.90;;;;;;5071061;28;20538;-83
2023/06/02 11:07:17;;;;;;;0.10;0.00;;;22.80;92.10;;;;;;5065988;28;20546;-83
2023/06/02 11:09:47;;;;;;;0.10;0.00;;;22.90;90.10;;;;;;5063721;28;20443;-81
2023/06/02 11:12:13;;;;;;;0.10;0.00;;;23.10;86.10;;;;;;5066165;28;20440;-81
2023/06/02 11:15:05;;;;;;;0.10;0.00;;;23.60;91.40;;;;;;5066751;28;20451;-83
2023/06/02 11:17:35;;;;;;;0.10;0.00;;;23.60;90.50;;;;;;5064275;28;20451;-85
2023/06/02 11:20:04;;;;;;;0.10;0.00;;;23.40;90.40;;;;;;5068398;28;20427;-82
2023/06/02 11:22:30;;;;;;;0.10;0.00;;;23.00;89.40;;;;;;5054168;28;20943;-82
2023/06/02 11:24:55;;;;;;;0.10;0.00;;;23.30;90.80;;;;;;5068981;28;20484;-80
2023/06/02 11:27:38;;;;;;;0.10;0.00;;;22.90;88.30;;;;;;5046217;28;20653;-82
2023/06/02 11:30:09;;;;;;;0.10;0.00;;;23.10;89.60;;;;;;5054932;28;20642;-83
2023/06/02 11:32:35;;;;;;;0.10;0.00;;;23.60;90.20;;;;;;5048828;28;20512;-82
2023/06/02 11:35:03;;;;;;;0.10;0.00;;;23.80;88.30;;;;;;5072011;28;20452;-83
2023/06/02 11:37:28;;;;;;;0.10;0.00;;;23.50;90.20;;;;;;5067726;28;20467;-82
2023/06/02 11:39:54;;;;;;;0.10;0.00;;;23.60;89.80;;;;;;5057502;28;20439;-82
2023/06/02 11:42:31;;;;;;;0.10;0.00;;;24.20;90.30;;;;;;5073960;28;20201;-82
2023/06/02 11:44:56;;;;;;;0.10;0.00;;;24.60;90.10;;;;;;5076319;28;20497;-82
2023/06/02 11:47:22;;;;;;;0.10;0.00;;;24.40;90.40;;;;;;5070952;28;20444;-81
2023/06/02 11:49:48;;;;;;;0.10;0.00;;;24.60;90.10;;;;;;5068691;28;20613;-82
2023/06/02 11:52:13;;;;;;;0.10;0.00;;;24.00;89.70;;;;;;5057692;28;20227;-82
2023/06/02 11:54:52;;;;;;;0.10;0.00;;;24.30;88.70;;;;;;5054332;28;20228;-82
2023/06/02 11:57:32;;;;;;;0.10;0.00;;;23.60;87.50;;;;;;5082441;28;20229;-82
2023/06/02 12:00:06;;;;;;;0.10;0.00;;;23.90;90.30;;;;;;5060843;28;20448;-82
2023/06/02 12:02:31;;;;;;;0.10;0.00;;;24.00;88.50;;;;;;5061011;28;20534;-84
2023/06/02 12:04:57;;;;;;;0.00;0.00;;;24.10;87.50;;;;;;5072850;28;20529;-83
2023/06/02 12:07:29;;;;;;;0.00;0.00;;;23.90;88.40;;;;;;5070844;28;20198;-84
2023/06/02 12:09:55;;;;;;;0.10;0.00;;;23.70;88.50;;;;;;5083190;28;20191;-84
2023/06/02 12:12:20;;;;;;;0.10;0.00;;;24.30;89.70;;;;;;5080145;28;20447;-83
2023/06/02 12:14:46;;;;;;;0.10;0.00;;;24.80;89.60;;;;;;5065681;28;20178;-82
2023/06/02 12:17:12;;;;;;;0.10;0.00;;;24.40;87.60;;;;;;5077042;28;20216;-83
2023/06/02 12:19:37;;;;;;;0.10;0.00;;;24.20;88.80;;;;;;5071116;28;20190;-83
2023/06/02 12:22:13;;;;;;;0.10;0.00;;;24.10;90.20;;;;;;5056808;28;20671;-82
2023/06/02 12:24:38;;;;;;;0.10;0.00;;;24.50;89.70;;;;;;5068142;28;20268;-84
2023/06/02 12:27:05;;;;;;;0.10;0.00;;;24.10;87.00;;;;;;5073175;28;20555;-79
2023/06/02 12:29:31;;;;;;;0.10;0.00;;;24.10;89.20;;;;;;5075106;28;20184;-82
2023/06/02 12:31:58;;;;;;;0.10;0.00;;;24.30;90.20;;;;;;5064750;28;20953;-80
2023/06/02 12:34:24;;;;;;;0.10;0.00;;;;;;;;;;5045286;28;20701;-80
2023/06/02 12:36:51;;;;;;;0.10;0.00;;;25.00;90.40;;;;;;5064659;28;21110;-82
2023/06/02 12:39:17;;;;;;;0.10;0.00;;;24.20;89.10;;;;;;5067882;28;20534;-82
2023/06/02 12:41:42;;;;;;;0.10;0.10;;;24.10;90.50;;;;;;5070343;28;20534;-81
2023/06/02 12:44:09;;;;;;;0.10;0.00;;;23.90;90.40;;;;;;5072733;28;20186;-83
2023/06/02 12:46:34;;;;;;;0.10;0.00;;;23.90;90.70;;;;;;5051554;28;20187;-82
2023/06/02 12:49:03;;;;;;;0.00;0.00;;;23.90;90.70;;;;;;5068072;28;20444;-81
2023/06/02 12:51:28;;;;;;;0.00;0.00;;;24.50;90.50;;;;;;5062234;28;20194;-80
2023/06/02 12:53:54;;;;;;;0.00;0.00;;;24.40;90.00;;;;;;5060288;28;20439;-81